Time;durP1;ratioP1;P1;durP2;ratioP2;P2;SDS_P1;SDS_P2;PMS_P1;PMS_P2;Temp;Humidity;BMP_temperature;BMP_pressure;BME280_temperature;BME280_humidity;BME280_pressure;Samples;Min_cycle;Max_cycle;Signal;HPM_P1;HPM_P2
2022/05/02 00:00:16;;;;;;;1.85;1.67;;;11.70;99.90;;;;;;5021047;28;20239;-76
2022/05/02 00:02:45;;;;;;;2.42;2.22;;;11.70;99.90;;;;;;5023814;28;20206;-76
2022/05/02 00:05:12;;;;;;;2.70;2.50;;;11.60;99.90;;;;;;5022996;28;20242;-77
2022/05/02 00:07:40;;;;;;;2.50;2.30;;;11.70;99.90;;;;;;5027324;28;20222;-76
2022/05/02 00:10:08;;;;;;;2.08;1.98;;;11.70;99.90;;;;;;5021661;28;20215;-76
2022/05/02 00:12:35;;;;;;;2.10;2.00;;;11.60;99.90;;;;;;5022818;28;20405;-77
2022/05/02 00:15:02;;;;;;;2.17;1.98;;;11.60;99.90;;;;;;5019502;28;20229;-76
2022/05/02 00:20:16;;;;;;;1.90;1.80;;;11.60;99.90;;;;;;5024303;28;20281;-77
2022/05/02 00:22:44;;;;;;;2.35;2.15;;;11.60;99.90;;;;;;5024635;28;20270;-76
2022/05/02 00:25:13;;;;;;;1.90;1.80;;;11.60;99.90;;;;;;5028605;28;20293;-76
2022/05/02 00:27:41;;;;;;;1.83;1.73;;;11.50;99.90;;;;;;5028552;28;20223;-77
2022/05/02 00:30:10;;;;;;;1.73;1.63;;;11.50;99.90;;;;;;5026240;28;20235;-77
2022/05/02 00:32:37;;;;;;;2.10;2.00;;;11.50;99.90;;;;;;5025765;28;20208;-77
2022/05/02 00:35:05;;;;;;;1.98;1.88;;;11.50;99.90;;;;;;5023570;28;20227;-76
2022/05/02 00:37:34;;;;;;;2.00;1.90;;;11.50;99.90;;;;;;5027922;28;20656;-76
2022/05/02 00:40:01;;;;;;;1.92;1.83;;;11.40;99.90;;;;;;5026954;28;20261;-76
2022/05/02 00:42:28;;;;;;;1.60;1.50;;;11.40;99.90;;;;;;5028830;28;20254;-77
2022/05/02 00:44:55;;;;;;;2.03;1.85;;;11.40;99.90;;;;;;5026644;28;20216;-77
2022/05/02 00:47:22;;;;;;;1.90;1.80;;;11.40;99.90;;;;;;5026177;28;20216;-77
2022/05/02 00:49:49;;;;;;;1.92;1.83;;;11.40;99.90;;;;;;5030245;28;20234;-76
2022/05/02 00:52:17;;;;;;;2.28;2.17;;;11.40;99.90;;;;;;5029788;28;20199;-77
2022/05/02 00:54:46;;;;;;;2.10;2.00;;;11.40;99.90;;;;;;5028066;28;20667;-76
2022/05/02 00:57:15;;;;;;;1.90;1.80;;;11.40;99.90;;;;;;5025777;28;20293;-76
2022/05/02 00:59:42;;;;;;;1.73;1.63;;;11.30;99.90;;;;;;5018927;28;20278;-75
2022/05/02 01:02:12;;;;;;;1.70;1.60;;;11.30;99.90;;;;;;5028724;28;20623;-77
2022/05/02 01:04:39;;;;;;;1.90;1.80;;;11.30;99.90;;;;;;5023222;28;20223;-76
2022/05/02 01:07:11;;;;;;;1.75;1.65;;;11.30;99.90;;;;;;5025115;28;20219;-77
2022/05/02 01:09:41;;;;;;;2.13;2.03;;;11.40;99.90;;;;;;5027392;28;20584;-77
2022/05/02 01:12:14;;;;;;;2.10;2.00;;;11.30;99.90;;;;;;5023909;28;20196;-77
2022/05/02 01:14:42;;;;;;;2.20;2.10;;;11.30;99.90;;;;;;5024694;28;20220;-76
2022/05/02 01:17:12;;;;;;;2.00;1.90;;;11.30;99.90;;;;;;5023096;28;20239;-76
2022/05/02 01:19:39;;;;;;;2.00;1.90;;;11.30;99.90;;;;;;5023841;28;20220;-76
2022/05/02 01:22:09;;;;;;;2.30;2.10;;;11.30;99.90;;;;;;5025515;28;20192;-77
2022/05/02 01:24:37;;;;;;;2.75;2.45;;;11.30;99.90;;;;;;5021846;28;20726;-76
2022/05/02 01:27:05;;;;;;;2.40;2.30;;;11.30;99.90;;;;;;5025793;28;20310;-77
2022/05/02 01:29:33;;;;;;;2.17;2.05;;;11.30;99.90;;;;;;5024840;28;20234;-77
2022/05/02 01:32:01;;;;;;;2.20;2.05;;;11.30;99.90;;;;;;5029178;28;20192;-76
2022/05/02 01:34:28;;;;;;;2.53;2.40;;;11.30;99.90;;;;;;5025297;28;20270;-77
2022/05/02 01:36:56;;;;;;;2.60;2.40;;;11.30;99.90;;;;;;5029240;28;20251;-77
2022/05/02 01:39:24;;;;;;;2.08;1.98;;;11.20;99.90;;;;;;5026145;28;20713;-76
2022/05/02 01:41:51;;;;;;;1.92;1.70;;;11.20;99.90;;;;;;5027644;28;20199;-77
2022/05/02 01:44:18;;;;;;;2.00;1.90;;;11.10;99.90;;;;;;5025256;28;20216;-76
2022/05/02 01:46:45;;;;;;;2.15;2.05;;;11.10;99.90;;;;;;5022684;28;20831;-76
2022/05/02 01:49:12;;;;;;;2.05;1.95;;;11.10;99.90;;;;;;5026732;28;20218;-76
2022/05/02 01:51:40;;;;;;;2.30;2.20;;;11.00;99.90;;;;;;5024195;28;20200;-76
2022/05/02 01:54:07;;;;;;;2.13;2.03;;;11.00;99.90;;;;;;5026327;28;20250;-77
2022/05/02 01:56:36;;;;;;;2.20;2.10;;;11.00;99.90;;;;;;5024627;28;20223;-76
2022/05/02 01:59:03;;;;;;;2.05;1.95;;;11.00;99.90;;;;;;5027955;28;20329;-77
2022/05/02 02:01:31;;;;;;;1.70;1.60;;;11.00;99.90;;;;;;5028266;28;20200;-77
2022/05/02 02:03:59;;;;;;;2.03;1.92;;;11.00;99.90;;;;;;5024990;28;20226;-77
2022/05/02 02:06:26;;;;;;;1.85;1.75;;;11.00;99.90;;;;;;5024857;28;20231;-76
2022/05/02 02:08:53;;;;;;;1.83;1.73;;;11.00;99.90;;;;;;5024123;28;20211;-76
2022/05/02 02:11:20;;;;;;;2.22;2.10;;;11.00;99.90;;;;;;5024194;28;20196;-76
2022/05/02 02:13:49;;;;;;;1.90;1.80;;;11.00;99.90;;;;;;5024604;28;21823;-76
2022/05/02 02:16:17;;;;;;;1.70;1.60;;;11.10;99.90;;;;;;5021120;28;20215;-76
2022/05/02 02:18:44;;;;;;;1.83;1.73;;;11.10;99.90;;;;;;5025276;28;20227;-77
2022/05/02 02:21:12;;;;;;;1.98;1.88;;;11.10;99.90;;;;;;5024608;28;20200;-76
2022/05/02 02:23:40;;;;;;;2.17;2.08;;;11.00;99.90;;;;;;5023998;28;20254;-76
2022/05/02 02:26:07;;;;;;;1.92;1.83;;;11.00;99.90;;;;;;5021203;28;20288;-77
2022/05/02 02:28:35;;;;;;;2.28;2.08;;;10.90;99.90;;;;;;5023758;28;20219;-76
2022/05/02 02:31:03;;;;;;;2.20;2.03;;;11.00;99.90;;;;;;5023016;28;20307;-77
2022/05/02 02:33:30;;;;;;;2.42;2.22;;;10.90;99.90;;;;;;5021392;28;20195;-78
2022/05/02 02:35:59;;;;;;;2.35;2.17;;;10.90;99.90;;;;;;5023182;28;20226;-79
2022/05/02 02:38:26;;;;;;;2.53;2.33;;;10.90;99.90;;;;;;5025773;28;20231;-77
2022/05/02 02:40:53;;;;;;;2.50;2.30;;;10.90;99.90;;;;;;5024968;28;20219;-76
2022/05/02 02:43:20;;;;;;;2.65;2.45;;;10.90;99.90;;;;;;5020294;28;20575;-76
2022/05/02 02:45:47;;;;;;;2.33;2.17;;;10.90;99.90;;;;;;5022652;28;20230;-76
2022/05/02 02:48:16;;;;;;;2.75;2.55;;;10.90;99.90;;;;;;5024238;28;20281;-76
2022/05/02 02:50:43;;;;;;;2.25;2.15;;;10.80;99.90;;;;;;5021626;28;20277;-76
2022/05/02 02:53:10;;;;;;;2.22;2.03;;;10.80;99.90;;;;;;5024762;28;20199;-77
2022/05/02 02:55:37;;;;;;;2.03;1.92;;;10.70;99.90;;;;;;5019894;28;20271;-76
2022/05/02 02:58:04;;;;;;;2.13;2.03;;;10.80;99.90;;;;;;5024565;28;20223;-77
2022/05/02 03:00:31;;;;;;;1.70;1.60;;;10.80;99.90;;;;;;5025081;28;20219;-78
2022/05/02 03:02:59;;;;;;;1.60;1.50;;;10.80;99.90;;;;;;5023775;28;20222;-76
2022/05/02 03:08:12;;;;;;;2.22;2.13;;;10.80;99.90;;;;;;5025079;28;20230;-77
2022/05/02 03:10:39;;;;;;;2.10;1.90;;;10.80;99.90;;;;;;5020969;28;20219;-77
2022/05/02 03:13:06;;;;;;;2.10;2.00;;;10.80;99.90;;;;;;5025803;28;20253;-77
2022/05/02 03:15:34;;;;;;;1.90;1.80;;;10.80;99.90;;;;;;5023425;28;20211;-77
2022/05/02 03:18:01;;;;;;;1.60;1.50;;;10.80;99.90;;;;;;5020029;28;20210;-76
2022/05/02 03:20:29;;;;;;;1.63;1.52;;;10.80;99.90;;;;;;5021266;28;20226;-76
2022/05/02 03:22:56;;;;;;;1.50;1.50;;;10.80;99.90;;;;;;5020864;28;20210;-77
2022/05/02 03:25:24;;;;;;;1.77;1.67;;;10.80;99.90;;;;;;5023393;28;20704;-76
2022/05/02 03:27:51;;;;;;;1.75;1.65;;;10.80;99.90;;;;;;5022962;28;20216;-76
2022/05/02 03:30:18;;;;;;;1.80;1.70;;;10.70;99.90;;;;;;5021501;28;20216;-77
2022/05/02 03:32:45;;;;;;;1.90;1.80;;;10.70;99.90;;;;;;5020027;28;20261;-76
2022/05/02 03:35:12;;;;;;;1.92;1.83;;;10.70;99.90;;;;;;5024626;28;20219;-77
2022/05/02 03:37:40;;;;;;;1.90;1.80;;;10.70;99.90;;;;;;5021139;28;20235;-76
2022/05/02 03:40:08;;;;;;;1.63;1.52;;;10.70;99.90;;;;;;5021703;28;20274;-76
2022/05/02 03:42:37;;;;;;;1.77;1.67;;;10.70;99.90;;;;;;5021125;28;20196;-77
2022/05/02 03:45:05;;;;;;;1.58;1.52;;;10.70;99.90;;;;;;5021196;28;20273;-77
2022/05/02 03:47:32;;;;;;;1.80;1.70;;;10.80;99.90;;;;;;5023202;28;20215;-76
2022/05/02 03:49:59;;;;;;;1.80;1.70;;;10.80;99.90;;;;;;5022539;28;20610;-76
2022/05/02 03:52:26;;;;;;;2.90;2.33;;;10.70;99.90;;;;;;5025521;28;20290;-76
2022/05/02 03:54:55;;;;;;;2.50;2.30;;;10.80;99.90;;;;;;5025137;28;20223;-77
2022/05/02 03:57:22;;;;;;;2.20;2.10;;;10.80;99.90;;;;;;5024586;28;20218;-76
2022/05/02 03:59:49;;;;;;;2.00;1.90;;;10.80;99.90;;;;;;5022880;28;20726;-76
2022/05/02 04:02:17;;;;;;;1.85;1.75;;;10.80;99.90;;;;;;5029039;28;20192;-76
2022/05/02 04:04:44;;;;;;;1.88;1.77;;;10.80;99.90;;;;;;5025450;28;20309;-76
2022/05/02 04:07:11;;;;;;;1.70;1.60;;;10.80;99.90;;;;;;5028164;28;20227;-76
2022/05/02 04:09:38;;;;;;;1.80;1.70;;;10.80;99.90;;;;;;5026065;28;20223;-76
2022/05/02 04:12:07;;;;;;;1.70;1.60;;;10.80;99.90;;;;;;5029683;28;20196;-76
2022/05/02 04:14:35;;;;;;;1.60;1.50;;;10.70;99.90;;;;;;5027268;28;20216;-76
2022/05/02 04:17:02;;;;;;;1.70;1.60;;;10.70;99.90;;;;;;5028485;28;20247;-76
2022/05/02 04:19:29;;;;;;;1.65;1.55;;;10.60;99.90;;;;;;5027163;28;20636;-77
2022/05/02 04:21:56;;;;;;;1.50;1.40;;;10.60;99.90;;;;;;5025649;28;20203;-76
2022/05/02 04:24:23;;;;;;;1.70;1.60;;;10.70;99.90;;;;;;5022703;28;20894;-76
2022/05/02 04:26:50;;;;;;;1.92;1.83;;;10.70;99.90;;;;;;5023450;28;20212;-75
2022/05/02 04:29:18;;;;;;;1.85;1.75;;;10.70;99.90;;;;;;5024867;28;20199;-76
2022/05/02 04:31:45;;;;;;;2.03;1.92;;;10.70;99.90;;;;;;5024870;28;20204;-76
2022/05/02 04:34:12;;;;;;;1.98;1.88;;;10.70;99.90;;;;;;5028578;28;20199;-76
2022/05/02 04:36:39;;;;;;;1.73;1.55;;;10.70;99.90;;;;;;5024522;28;20231;-77
2022/05/02 04:39:06;;;;;;;1.70;1.60;;;10.70;99.90;;;;;;5038895;23;20229;-79
2022/05/02 04:41:33;;;;;;;2.08;1.98;;;10.80;99.90;;;;;;5019563;28;20208;-78
2022/05/02 04:44:00;;;;;;;1.70;1.60;;;10.70;99.90;;;;;;5017115;28;20220;-77
2022/05/02 04:46:29;;;;;;;1.60;1.58;;;10.80;99.90;;;;;;5022654;28;20216;-79
2022/05/02 04:48:56;;;;;;;1.85;1.63;;;10.80;99.90;;;;;;5015656;28;20219;-78
2022/05/02 04:51:23;;;;;;;1.67;1.58;;;10.90;99.90;;;;;;5019692;28;20737;-77
2022/05/02 04:53:50;;;;;;;1.65;1.55;;;10.90;99.90;;;;;;5011513;28;20204;-78
2022/05/02 04:56:17;;;;;;;1.88;1.75;;;11.00;99.90;;;;;;5018213;28;20533;-78
2022/05/02 04:58:44;;;;;;;1.80;1.70;;;11.00;99.90;;;;;;5013951;28;20262;-78
2022/05/02 05:01:11;;;;;;;1.80;1.70;;;11.10;99.90;;;;;;5015523;28;20284;-78
2022/05/02 05:03:39;;;;;;;1.73;1.63;;;11.20;99.90;;;;;;5017178;28;20197;-78
2022/05/02 05:06:07;;;;;;;1.88;1.77;;;11.20;99.90;;;;;;5018524;28;20744;-77
2022/05/02 05:08:34;;;;;;;1.63;1.52;;;11.20;99.90;;;;;;5021112;28;20277;-77
2022/05/02 05:11:09;;;;;;;1.92;1.83;;;11.30;99.90;;;;;;5013070;28;20839;-76
2022/05/02 05:13:43;;;;;;;1.80;1.70;;;11.30;99.90;;;;;;5016301;28;20216;-78
2022/05/02 05:16:30;;;;;;;1.80;1.70;;;11.40;99.90;;;;;;5015019;28;20224;-78
2022/05/02 05:19:07;;;;;;;2.00;1.80;;;11.40;99.90;;;;;;5012783;28;20222;-79
2022/05/02 05:21:46;;;;;;;2.42;2.22;;;11.50;99.90;;;;;;5015075;28;20216;-78
2022/05/02 05:24:40;;;;;;;2.72;2.53;;;11.50;99.90;;;;;;5008492;28;20200;-76
2022/05/02 05:27:17;;;;;;;2.50;2.30;;;11.60;99.90;;;;;;5012033;28;20231;-78
2022/05/02 05:29:51;;;;;;;2.28;2.10;;;11.60;99.90;;;;;;5013691;28;20216;-78
2022/05/02 05:32:28;;;;;;;2.15;2.05;;;11.70;99.90;;;;;;5014735;28;20219;-78
2022/05/02 05:35:05;;;;;;;3.15;2.20;;;11.80;99.90;;;;;;5016369;28;20242;-78
2022/05/02 05:38:01;;;;;;;2.38;2.17;;;11.90;99.90;;;;;;5015770;28;20228;-79
2022/05/02 05:40:34;;;;;;;2.22;2.10;;;12.00;99.90;;;;;;4976547;28;20662;-77
2022/05/02 05:43:19;;;;;;;2.72;2.58;;;12.10;99.90;;;;;;5011886;28;20632;-78
2022/05/02 05:46:02;;;;;;;2.53;2.33;;;12.20;99.90;;;;;;5015265;28;20270;-78
2022/05/02 05:48:43;;;;;;;2.45;2.25;;;12.30;99.90;;;;;;5009918;28;20218;-79
2022/05/02 05:51:27;;;;;;;2.70;2.50;;;12.30;99.90;;;;;;5013866;28;20278;-78
2022/05/02 05:54:06;;;;;;;2.08;1.98;;;12.20;99.90;;;;;;5009909;28;20353;-76
2022/05/02 05:57:04;;;;;;;2.25;2.15;;;12.30;99.90;;;;;;5009397;28;20283;-78
2022/05/02 05:59:48;;;;;;;2.35;2.25;;;12.60;99.90;;;;;;5003769;28;20230;-77
2022/05/02 06:02:20;;;;;;;2.97;2.28;;;12.90;99.90;;;;;;5001758;28;20215;-77
2022/05/02 06:04:50;;;;;;;2.35;2.15;;;13.30;99.90;;;;;;4999590;28;20196;-79
2022/05/02 06:07:21;;;;;;;2.28;2.17;;;13.60;99.90;;;;;;5002225;28;20224;-77
2022/05/02 06:09:50;;;;;;;2.80;2.60;;;13.80;99.90;;;;;;5003658;28;20220;-78
2022/05/02 06:12:20;;;;;;;2.70;2.50;;;13.90;99.90;;;;;;5003170;28;20220;-78
2022/05/02 06:20:24;;;;;;;2.67;2.00;;;13.80;99.90;;;;;;5003967;28;20231;-77
2022/05/02 06:22:52;;;;;;;2.08;1.98;;;13.90;99.90;;;;;;5000913;28;20236;-78
2022/05/02 06:25:21;;;;;;;2.05;1.95;;;14.10;99.90;;;;;;5002564;28;20203;-78
2022/05/02 06:27:49;;;;;;;2.25;2.05;;;14.20;99.90;;;;;;5004125;28;20298;-78
2022/05/02 06:30:17;;;;;;;2.22;2.13;;;14.60;99.90;;;;;;5002608;28;20295;-76
2022/05/02 06:32:45;;;;;;;2.50;2.35;;;14.90;99.90;;;;;;5000771;28;20220;-78
2022/05/02 06:35:13;;;;;;;2.53;2.30;;;14.90;99.90;;;;;;5004216;28;20200;-77
2022/05/02 06:37:47;;;;;;;2.22;2.13;;;14.60;99.90;;;;;;5000443;28;20224;-78
2022/05/02 06:40:24;;;;;;;1.98;1.88;;;14.30;99.90;;;;;;5003871;28;20235;-79
2022/05/02 06:43:04;;;;;;;2.20;2.10;;;13.90;99.90;;;;;;4999777;28;20223;-77
2022/05/02 06:45:38;;;;;;;2.03;1.92;;;13.60;99.90;;;;;;5003824;28;20509;-76
2022/05/02 06:48:29;;;;;;;1.85;1.60;;;13.50;99.90;;;;;;5001108;28;20227;-78
2022/05/02 06:51:01;;;;;;;1.92;1.83;;;13.50;99.90;;;;;;4997627;28;20279;-78
2022/05/02 06:54:02;;;;;;;1.73;1.63;;;13.50;99.90;;;;;;5000050;28;20294;-78
2022/05/02 06:56:41;;;;;;;2.33;2.13;;;13.60;99.90;;;;;;5002339;28;20877;-79
2022/05/02 06:59:18;;;;;;;2.25;2.13;;;13.70;99.90;;;;;;5003253;28;20698;-78
2022/05/02 07:01:49;;;;;;;2.60;1.70;;;13.70;99.90;;;;;;5000955;28;20223;-77
2022/05/02 07:04:48;;;;;;;1.95;1.85;;;13.60;99.90;;;;;;5003367;28;20234;-78
2022/05/02 07:07:37;;;;;;;1.90;1.80;;;13.60;99.90;;;;;;4967893;28;20204;-78
2022/05/02 07:10:06;;;;;;;1.85;1.75;;;13.60;99.90;;;;;;5015232;28;20291;-77
2022/05/02 07:12:41;;;;;;;2.20;2.10;;;13.50;99.90;;;;;;5009293;28;20254;-75
2022/05/02 07:15:15;;;;;;;1.90;1.80;;;13.50;99.90;;;;;;5005729;28;20649;-78
2022/05/02 07:18:05;;;;;;;1.75;1.65;;;13.40;99.90;;;;;;5005989;28;20202;-78
2022/05/02 07:20:43;;;;;;;1.90;1.80;;;13.40;99.90;;;;;;5005657;28;20335;-76
2022/05/02 07:23:32;;;;;;;2.00;1.90;;;13.40;99.90;;;;;;5010407;28;20669;-77
2022/05/02 07:26:07;;;;;;;2.08;1.98;;;13.40;99.90;;;;;;5002049;28;20663;-77
2022/05/02 07:28:44;;;;;;;2.28;2.08;;;13.50;99.90;;;;;;5007408;28;20250;-77
2022/05/02 07:31:12;;;;;;;2.47;2.30;;;13.40;99.90;;;;;;5004802;28;20593;-78
2022/05/02 07:33:40;;;;;;;2.72;2.53;;;13.40;99.90;;;;;;5006441;28;20196;-78
2022/05/02 07:36:09;;;;;;;2.47;2.28;;;13.30;99.90;;;;;;5003419;28;20232;-78
2022/05/02 07:38:37;;;;;;;3.80;2.17;;;13.20;99.90;;;;;;5000222;28;20220;-78
2022/05/02 07:41:24;;;;;;;3.67;2.65;;;13.30;99.90;;;;;;5001460;28;20285;-78
2022/05/02 07:43:58;;;;;;;2.33;2.13;;;13.40;99.90;;;;;;4999806;28;20199;-77
2022/05/02 07:46:28;;;;;;;3.47;2.92;;;13.50;99.90;;;;;;5005554;28;20304;-77
2022/05/02 07:48:58;;;;;;;3.88;2.42;;;13.60;99.90;;;;;;5003648;28;20212;-76
2022/05/02 07:51:25;;;;;;;2.33;2.13;;;13.60;99.90;;;;;;5003580;28;20298;-76
2022/05/02 07:53:53;;;;;;;2.28;2.17;;;13.60;99.90;;;;;;5004421;28;20192;-78
2022/05/02 07:56:24;;;;;;;2.20;2.10;;;13.70;99.90;;;;;;5001979;28;20319;-77
2022/05/02 07:58:55;;;;;;;2.20;2.00;;;13.80;99.90;;;;;;4999993;28;20306;-77
2022/05/02 08:01:24;;;;;;;2.33;2.13;;;13.80;99.90;;;;;;5002561;28;20223;-77
2022/05/02 08:03:52;;;;;;;2.00;1.90;;;13.90;99.90;;;;;;5000239;28;20220;-77
2022/05/02 08:06:34;;;;;;;2.13;2.00;;;14.10;99.90;;;;;;4999050;28;20578;-78
2022/05/02 08:09:11;;;;;;;2.00;1.90;;;14.10;99.90;;;;;;5003340;28;20528;-77
2022/05/02 08:11:47;;;;;;;2.60;1.50;;;14.00;99.90;;;;;;5002475;28;20220;-77
2022/05/02 08:14:22;;;;;;;1.80;1.70;;;13.90;99.90;;;;;;5008448;28;20199;-76
2022/05/02 08:17:02;;;;;;;2.33;2.13;;;13.90;99.90;;;;;;4998109;28;20306;-77
2022/05/02 08:19:41;;;;;;;2.25;1.90;;;13.90;99.90;;;;;;5010534;28;20631;-75
2022/05/02 08:28:03;;;;;;;10.75;3.78;;;14.10;99.90;;;;;;5006331;28;20460;-77
2022/05/02 08:30:39;;;;;;;3.83;2.15;;;14.20;99.90;;;;;;5004732;28;20203;-76
2022/05/02 08:33:07;;;;;;;2.17;1.95;;;14.30;99.90;;;;;;5004410;28;20219;-77
2022/05/02 08:35:46;;;;;;;2.20;2.00;;;14.30;99.90;;;;;;5007091;28;20197;-77
2022/05/02 08:38:36;;;;;;;2.00;1.90;;;14.40;99.90;;;;;;5000307;28;20235;-77
2022/05/02 08:41:34;;;;;;;2.05;1.95;;;14.60;99.90;;;;;;5003761;28;20224;-78
2022/05/02 08:44:42;;;;;;;1.90;1.80;;;14.70;99.90;;;;;;5004106;28;20223;-78
2022/05/02 08:47:30;;;;;;;2.10;1.90;;;14.80;99.90;;;;;;5003856;28;20196;-78
2022/05/02 08:50:30;;;;;;;2.22;2.13;;;14.90;99.90;;;;;;5006966;28;20326;-78
2022/05/02 08:53:40;;;;;;;1.65;1.55;;;15.10;99.90;;;;;;4999035;28;20248;-78
2022/05/02 08:56:25;;;;;;;1.90;1.80;;;15.40;99.90;;;;;;5007304;28;20545;-76
2022/05/02 08:59:21;;;;;;;1.98;1.88;;;15.70;99.90;;;;;;5003851;28;20223;-78
2022/05/02 09:02:09;;;;;;;2.30;2.10;;;15.80;99.90;;;;;;5006822;28;20274;-79
2022/05/02 09:05:21;;;;;;;4.60;2.45;;;16.10;99.90;;;;;;5005737;28;20509;-77
2022/05/02 09:08:08;;;;;;;2.55;2.03;;;16.80;99.90;;;;;;5005839;28;20694;-77
2022/05/02 09:10:57;;;;;;;4.30;2.35;;;17.30;99.90;;;;;;5004008;28;20212;-78
2022/05/02 09:14:04;;;;;;;2.92;1.98;;;17.80;99.90;;;;;;5008746;28;20265;-78
2022/05/02 09:17:07;;;;;;;18.55;6.00;;;17.90;99.90;;;;;;5013263;28;20206;-76
2022/05/02 09:19:52;;;;;;;14.20;4.68;;;18.00;99.90;;;;;;5004520;28;20654;-77
2022/05/02 09:23:11;;;;;;;4.50;2.53;;;18.10;99.90;;;;;;5008166;28;20223;-75
2022/05/02 09:25:51;;;;;;;2.50;2.30;;;17.80;99.90;;;;;;5012366;28;20712;-76
2022/05/02 09:28:21;;;;;;;2.35;2.13;;;17.20;99.90;;;;;;5012949;28;20227;-77
2022/05/02 09:31:18;;;;;;;2.22;2.00;;;16.70;99.90;;;;;;5006584;28;20731;-78
2022/05/02 09:33:50;;;;;;;8.98;3.03;;;16.10;99.90;;;;;;5000761;28;20231;-75
2022/05/02 09:36:26;;;;;;;4.40;2.53;;;15.70;99.90;;;;;;5003767;28;20199;-78
2022/05/02 09:39:03;;;;;;;3.97;2.38;;;15.60;99.90;;;;;;5003647;28;20327;-78
2022/05/02 09:41:59;;;;;;;3.67;2.45;;;15.50;99.90;;;;;;5002546;28;20199;-77
2022/05/02 09:50:38;;;;;;;2.20;2.00;;;15.30;99.90;;;;;;5000415;28;20717;-77
2022/05/02 09:53:17;;;;;;;8.20;3.47;;;15.30;99.90;;;;;;4998518;28;20766;-76
2022/05/02 09:58:55;;;;;;;2.45;2.25;;;15.50;99.90;;;;;;4995885;28;20254;-75
2022/05/02 10:01:26;;;;;;;4.82;2.70;;;15.50;99.90;;;;;;4998244;28;20573;-78
2022/05/02 10:04:18;;;;;;;4.80;3.00;;;15.50;99.90;;;;;;5001004;28;20216;-77
2022/05/02 10:06:50;;;;;;;8.90;4.20;;;15.60;99.90;;;;;;4995213;28;20635;-77
2022/05/02 10:09:36;;;;;;;8.48;3.88;;;15.70;99.90;;;;;;5001326;28;20231;-76
2022/05/02 10:12:24;;;;;;;14.52;6.03;;;15.80;99.90;;;;;;5001363;28;20283;-76
2022/05/02 10:15:00;;;;;;;4.93;3.25;;;15.90;99.90;;;;;;4996264;28;20652;-78
2022/05/02 10:17:54;;;;;;;23.27;7.97;;;15.90;99.90;;;;;;5003878;28;20207;-74
2022/05/02 10:20:23;;;;;;;6.28;3.13;;;16.10;99.90;;;;;;4963169;28;20239;-78
2022/05/02 10:23:15;;;;;;;3.58;2.60;;;16.30;99.90;;;;;;5002651;28;20196;-74
2022/05/02 10:25:49;;;;;;;2.80;2.22;;;16.50;99.90;;;;;;5006481;28;20222;-77
2022/05/02 10:28:34;;;;;;;24.50;7.97;;;16.80;99.90;;;;;;5001493;28;20219;-76
2022/05/02 10:31:05;;;;;;;5.47;3.22;;;16.80;99.90;;;;;;5001593;28;20498;-76
2022/05/02 10:33:36;;;;;;;9.98;4.30;;;16.60;99.90;;;;;;5004410;28;20238;-76
2022/05/02 10:36:05;;;;;;;6.07;3.42;;;16.50;99.90;;;;;;5007457;28;20231;-77
2022/05/02 10:41:24;;;;;;;6.22;3.45;;;16.60;99.90;;;;;;4990078;28;20279;-76
2022/05/02 10:44:01;;;;;;;2.53;2.30;;;16.50;99.90;;;;;;4973222;28;20695;-75
2022/05/02 10:46:31;;;;;;;2.40;2.20;;;16.40;99.90;;;;;;4981206;28;20647;-76
2022/05/02 10:49:03;;;;;;;29.15;9.02;;;16.50;99.90;;;;;;4980066;28;21028;-75
2022/05/02 10:51:41;;;;;;;4.65;2.80;;;16.30;99.90;;;;;;4979545;28;20538;-76
2022/05/02 10:54:13;;;;;;;2.78;2.47;;;16.30;99.90;;;;;;4973970;28;20613;-76
2022/05/02 10:56:44;;;;;;;2.47;2.28;;;16.20;99.90;;;;;;4994424;28;20319;-74
2022/05/02 10:59:15;;;;;;;2.38;2.15;;;16.20;99.90;;;;;;5024686;28;20243;-75
2022/05/02 11:02:23;;;;;;;2.78;2.25;;;16.00;99.90;;;;;;5017463;28;20613;-76
2022/05/02 11:05:06;;;;;;;4.05;2.85;;;16.00;99.90;;;;;;5017538;28;20204;-74
2022/05/02 11:07:46;;;;;;;3.72;2.75;;;16.10;99.90;;;;;;5021265;28;20301;-73
2022/05/02 11:10:18;;;;;;;3.63;2.50;;;16.10;99.90;;;;;;5025238;28;20217;-73
2022/05/02 11:12:48;;;;;;;3.85;2.50;;;16.10;99.90;;;;;;5017562;28;20246;-73
2022/05/02 11:15:20;;;;;;;2.58;2.38;;;16.10;99.90;;;;;;5017198;28;20223;-72
2022/05/02 11:17:57;;;;;;;3.10;2.78;;;16.10;99.90;;;;;;5019453;28;20242;-73
2022/05/02 11:20:43;;;;;;;2.83;2.60;;;16.30;99.90;;;;;;5019716;28;20223;-74
2022/05/02 11:23:41;;;;;;;2.40;2.20;;;16.50;99.90;;;;;;5021299;28;20306;-77
2022/05/02 11:26:17;;;;;;;3.17;2.55;;;16.80;99.90;;;;;;5016854;28;20227;-78
2022/05/02 11:29:00;;;;;;;2.33;2.20;;;17.10;99.90;;;;;;5019932;28;20662;-75
2022/05/02 11:31:36;;;;;;;2.33;2.13;;;17.30;99.90;;;;;;5016304;28;20305;-75
2022/05/02 11:34:13;;;;;;;3.45;2.40;;;17.60;99.90;;;;;;5019995;28;20555;-74
2022/05/02 11:36:45;;;;;;;2.72;2.53;;;17.60;99.90;;;;;;5020298;28;20222;-74
2022/05/02 11:39:21;;;;;;;2.08;1.90;;;17.50;99.90;;;;;;5015973;28;20286;-74
2022/05/02 11:41:52;;;;;;;2.08;1.98;;;17.40;99.90;;;;;;5018628;28;20242;-73
2022/05/02 11:44:21;;;;;;;2.22;2.13;;;17.40;99.90;;;;;;5014523;28;20726;-74
2022/05/02 11:47:01;;;;;;;1.92;1.83;;;17.40;99.90;;;;;;5014522;28;20215;-75
2022/05/02 11:49:44;;;;;;;3.15;2.65;;;17.30;99.90;;;;;;5019165;28;20227;-74
2022/05/02 11:52:15;;;;;;;3.63;2.42;;;17.30;99.90;;;;;;5023501;28;20211;-76
2022/05/02 11:54:47;;;;;;;3.08;2.05;;;17.30;99.90;;;;;;5018892;28;20202;-75
2022/05/02 11:57:21;;;;;;;2.20;2.00;;;17.20;99.90;;;;;;5017447;28;20224;-72
2022/05/02 12:00:09;;;;;;;2.10;1.90;;;17.30;99.90;;;;;;5021554;28;20747;-76
2022/05/02 12:03:03;;;;;;;3.13;2.30;;;17.40;99.90;;;;;;5017183;28;20234;-74
2022/05/02 12:05:32;;;;;;;2.28;2.08;;;18.10;99.90;;;;;;5013580;28;20257;-75
2022/05/02 12:08:02;;;;;;;2.10;2.00;;;18.30;99.90;;;;;;5016398;28;20747;-75
2022/05/02 12:10:37;;;;;;;2.42;2.08;;;18.40;99.90;;;;;;5018699;28;20238;-74
2022/05/02 12:13:05;;;;;;;1.95;1.85;;;18.40;99.90;;;;;;5017636;28;20219;-74
2022/05/02 12:15:32;;;;;;;1.70;1.60;;;18.60;99.90;;;;;;5019941;28;20196;-74
2022/05/02 12:18:03;;;;;;;1.50;1.40;;;18.40;99.90;;;;;;5020444;28;20239;-74
2022/05/02 12:20:33;;;;;;;1.85;1.75;;;18.20;99.90;;;;;;5022193;28;20768;-76
2022/05/02 12:23:03;;;;;;;2.25;2.05;;;18.00;99.90;;;;;;5016497;28;20483;-74
2022/05/02 12:25:32;;;;;;;1.63;1.52;;;17.80;99.90;;;;;;5020314;28;20191;-75
2022/05/02 12:28:03;;;;;;;2.20;2.05;;;17.70;99.90;;;;;;5021627;28;20709;-74
2022/05/02 12:30:31;;;;;;;1.98;1.83;;;17.70;99.90;;;;;;5022805;28;20219;-74
2022/05/02 12:33:05;;;;;;;2.20;2.00;;;17.50;99.90;;;;;;5021899;28;20212;-76
2022/05/02 12:35:37;;;;;;;2.20;2.03;;;17.40;99.90;;;;;;5024423;28;20235;-74
2022/05/02 12:38:23;;;;;;;1.90;1.80;;;17.50;99.90;;;;;;5024514;28;20698;-74
2022/05/02 12:40:52;;;;;;;1.70;1.60;;;17.50;99.90;;;;;;5024008;28;20227;-75
2022/05/02 12:43:29;;;;;;;2.15;1.95;;;17.60;99.90;;;;;;5020816;28;20946;-74
2022/05/02 12:45:57;;;;;;;1.90;1.80;;;17.70;99.90;;;;;;5023315;28;20240;-73
2022/05/02 12:48:30;;;;;;;2.20;2.00;;;17.70;99.90;;;;;;5024488;28;20697;-74
2022/05/02 12:50:59;;;;;;;1.92;1.40;;;17.80;99.90;;;;;;5021461;28;20220;-74
2022/05/02 12:56:14;;;;;;;2.53;1.90;;;18.10;99.90;;;;;;5022521;28;20195;-74
2022/05/02 13:01:43;;;;;;;1.65;1.55;;;18.30;99.90;;;;;;5021036;28;20230;-76
2022/05/02 13:04:19;;;;;;;1.42;1.33;;;18.20;99.90;;;;;;5022331;28;20737;-75
2022/05/02 13:06:51;;;;;;;1.60;1.50;;;18.20;99.90;;;;;;5022830;28;20215;-75
2022/05/02 13:09:20;;;;;;;1.58;1.48;;;18.30;99.90;;;;;;5023806;28;20219;-76
2022/05/02 13:11:47;;;;;;;1.40;1.30;;;18.50;99.90;;;;;;5024825;28;20207;-76
2022/05/02 13:14:22;;;;;;;2.05;1.65;;;18.60;99.90;;;;;;5024498;28;20793;-73
2022/05/02 13:16:51;;;;;;;1.63;1.52;;;19.00;99.90;;;;;;5022748;28;20593;-75
2022/05/02 13:19:33;;;;;;;1.75;1.65;;;19.20;99.90;;;;;;5021538;28;20215;-75
2022/05/02 13:22:00;;;;;;;1.52;1.42;;;19.40;99.90;;;;;;5021543;28;20227;-75
2022/05/02 13:24:27;;;;;;;1.30;1.20;;;19.50;99.90;;;;;;5024724;28;21788;-75
2022/05/02 13:27:08;;;;;;;1.20;1.20;;;20.10;99.90;;;;;;5004781;28;20289;-74
2022/05/02 13:29:58;;;;;;;2.15;1.20;;;20.60;99.90;;;;;;5017690;28;20223;-75
2022/05/02 13:32:27;;;;;;;0.80;0.80;;;21.00;99.90;;;;;;5017105;28;20220;-75
2022/05/02 13:35:13;;;;;;;1.55;1.23;;;21.00;99.90;;;;;;5014687;28;20283;-75
2022/05/02 13:38:03;;;;;;;0.80;0.80;;;21.00;99.90;;;;;;5019625;28;20223;-74
2022/05/02 13:40:49;;;;;;;1.40;0.80;;;21.20;99.90;;;;;;5017713;28;20231;-75
2022/05/02 13:43:28;;;;;;;1.05;0.70;;;21.50;99.90;;;;;;5017095;28;20227;-75
2022/05/02 13:46:09;;;;;;;0.90;0.90;;;21.80;99.90;;;;;;5016850;28;20717;-74
2022/05/02 13:48:41;;;;;;;1.13;0.95;;;21.90;99.90;;;;;;5018531;28;20219;-75
2022/05/02 13:51:20;;;;;;;1.88;0.90;;;21.80;99.90;;;;;;5020645;28;20227;-75
2022/05/02 13:53:53;;;;;;;1.00;0.90;;;21.70;99.90;;;;;;5017914;28;20223;-75